bureau de piste

METAR LFMD 251200Z AUTO 23014G24KT 210V270 CAVOK 36/12 Q1009 BECMG 06010KT

TAF LFMD 250800Z 2509/2609 27012KT CAVOK BECMG 2513/2515 06010KT BECMG 2517/2519 VRB02KT PROB30 TEMPO 2519/2522 BKN010 BECMG 2608/2609 17008KT

INFORMATION ADDS - 1216 UTC 25 June 2017

Plus d’information sur les terrains : LFMD et VALBERG

Les commentaires sont clos.